createdAt,value
2019-04-27T00:00:28.510Z,93.19
2019-04-27T00:01:27.543Z,93.35
2019-04-27T00:02:27.561Z,93.29
2019-04-27T00:03:27.537Z,92.78
2019-04-27T00:04:27.505Z,92.68
2019-04-27T00:05:32.297Z,91.11
2019-04-27T00:06:28.486Z,90.94
2019-04-27T00:07:27.489Z,91.76
2019-04-27T00:08:28.474Z,92.78
2019-04-27T00:09:28.465Z,91.72
2019-04-27T00:10:28.677Z,90.53
2019-04-27T00:11:27.431Z,90.53
2019-04-27T00:12:27.440Z,90.74
2019-04-27T00:13:27.451Z,91.35
2019-04-27T00:14:27.395Z,91.76
2019-04-27T00:15:31.341Z,90.94
2019-04-27T00:16:28.372Z,92.37
2019-04-27T00:17:45.053Z,92.78
2019-04-27T00:18:28.351Z,91.76
2019-04-27T00:19:31.438Z,91.72
2019-04-27T00:20:27.326Z,90.64
2019-04-27T00:21:27.315Z,90.53
2019-04-27T00:22:27.336Z,90.33
2019-04-27T00:23:27.898Z,90.84
2019-04-27T00:24:27.287Z,91.76
2019-04-27T00:25:27.268Z,92.88
2019-04-27T00:26:27.260Z,92.37
2019-04-27T00:27:27.247Z,91.15
2019-04-27T00:28:27.262Z,90.90
2019-04-27T00:29:27.224Z,90.74
2019-04-27T00:30:27.219Z,90.94
2019-04-27T00:31:27.207Z,91.15
2019-04-27T00:32:27.200Z,91.46
2019-04-27T00:33:27.485Z,91.56
2019-04-27T00:34:27.178Z,90.84
2019-04-27T00:35:27.159Z,90.84
2019-04-27T00:36:27.148Z,91.76
2019-04-27T00:37:27.142Z,91.20
2019-04-27T00:38:27.143Z,90.64
2019-04-27T00:39:27.120Z,90.64
2019-04-27T00:40:27.109Z,90.84
2019-04-27T00:41:27.085Z,91.15
2019-04-27T00:42:27.079Z,90.74
2019-04-27T00:43:27.139Z,89.72
2019-04-27T00:44:27.056Z,90.23
2019-04-27T00:45:27.050Z,90.33
2019-04-27T00:46:27.043Z,90.33
2019-04-27T00:47:27.020Z,90.53
2019-04-27T00:48:27.030Z,90.80
2019-04-27T00:49:27.005Z,90.23
2019-04-27T00:50:26.992Z,90.02
2019-04-27T00:51:26.997Z,90.39
2019-04-27T00:52:26.965Z,90.43
2019-04-27T00:53:27.033Z,90.94
2019-04-27T00:54:26.946Z,90.80
2019-04-27T07:55:34.947Z,74.48
2019-04-27T07:56:34.911Z,74.38
2019-04-27T07:57:34.907Z,74.07
2019-04-27T07:58:34.912Z,74.38
2019-04-27T07:59:34.883Z,75.09
2019-04-27T08:00:34.877Z,74.85
2019-04-27T08:01:34.913Z,74.38
2019-04-27T08:02:34.844Z,75.19
2019-04-27T08:03:34.847Z,73.97
2019-04-27T08:04:34.826Z,73.16
2019-04-27T08:05:34.843Z,74.28
2019-04-27T08:06:34.826Z,74.68
2019-04-27T08:07:34.816Z,74.28
2019-04-27T08:08:34.772Z,75.02
2019-04-27T08:09:34.787Z,74.38
2019-04-27T08:10:34.788Z,74.68
2019-04-27T08:11:34.757Z,74.48
2019-04-27T08:12:34.730Z,74.58
2019-04-27T08:13:34.717Z,73.87
2019-04-27T08:14:34.705Z,74.04
2019-04-27T08:15:34.711Z,72.82
2019-04-27T08:16:34.685Z,73.83
2019-04-27T08:17:34.683Z,73.43
2019-04-27T08:18:34.660Z,73.29
2019-04-27T08:19:34.657Z,72.69
2019-04-27T08:20:34.654Z,72.58
2019-04-27T08:21:43.553Z,72.58
2019-04-27T08:22:35.614Z,72.99
2019-04-27T08:23:34.603Z,73.16
2019-04-27T08:24:34.604Z,72.08
2019-04-27T08:25:34.600Z,72.28
2019-04-27T08:26:34.595Z,71.77
2019-04-27T08:27:34.581Z,71.88
2019-04-27T08:28:34.549Z,72.69
2019-04-27T08:29:34.537Z,72.89
2019-04-27T08:30:34.543Z,71.88
2019-04-27T08:31:34.534Z,71.64
2019-04-27T08:32:34.508Z,71.97
2019-04-27T08:33:34.497Z,72.28
2019-04-27T08:34:34.490Z,72.34
2019-04-27T08:35:34.523Z,73.16
2019-04-27T08:36:34.482Z,72.34
2019-04-27T08:37:34.446Z,72.96
2019-04-27T08:38:34.451Z,72.82
2019-04-27T08:39:34.430Z,72.11
2019-04-27T08:40:34.413Z,71.67
2019-04-27T08:41:34.431Z,72.48
2019-04-27T08:42:34.395Z,70.96
2019-04-27T08:43:34.383Z,70.05
2019-04-27T08:44:34.361Z,70.86
2019-04-27T08:45:34.371Z,69.74
2019-04-27T08:46:34.382Z,70.05
2019-04-27T08:47:34.352Z,69.24
2019-04-27T08:48:36.921Z,69.44
2019-04-27T08:49:34.311Z,69.44
2019-04-27T08:50:34.299Z,69.37
2019-04-27T08:51:34.301Z,70.15
2019-04-27T08:52:34.273Z,69.64
2019-04-27T08:53:34.265Z,68.90
2019-04-27T08:54:34.252Z,69.41
2019-04-27T08:55:34.245Z,69.31
2019-04-27T08:56:34.255Z,68.60
2019-04-27T08:57:34.214Z,68.56
2019-04-27T08:58:34.209Z,68.60
2019-04-27T08:59:34.198Z,67.85
2019-04-27T09:00:34.185Z,67.96
2019-04-27T09:01:34.203Z,67.55
2019-04-27T09:02:44.153Z,67.11
2019-04-27T09:03:35.144Z,66.88
2019-04-27T09:04:34.137Z,65.73
2019-04-27T09:05:34.121Z,66.75
2019-04-27T09:06:34.138Z,66.21
2019-04-27T09:07:34.111Z,65.47
2019-04-27T09:08:34.112Z,65.07
2019-04-27T09:09:34.084Z,62.74
2019-04-27T09:10:34.066Z,63.45
2019-04-27T09:11:34.074Z,62.82
2019-04-27T09:12:34.044Z,60.93
2019-04-27T09:13:34.035Z,60.19
2019-04-27T09:14:34.034Z,60.29
2019-04-27T09:15:34.030Z,59.31
2019-04-27T09:16:34.024Z,60.12
2019-04-27T09:17:33.990Z,60.22
2019-04-27T09:18:33.982Z,59.44
2019-04-27T09:19:33.989Z,60.25
2019-04-27T09:20:33.959Z,61.08
2019-04-27T09:21:33.962Z,59.87
2019-04-27T09:22:33.931Z,59.27
2019-04-27T09:23:33.926Z,59.56
2019-04-27T09:24:33.915Z,60.58
2019-04-27T09:25:33.911Z,59.67
2019-04-27T09:26:33.917Z,60.48
2019-04-27T09:27:33.876Z,61.36
2019-04-27T09:28:33.883Z,60.75
2019-04-27T09:29:33.855Z,60.25
2019-04-27T09:30:33.854Z,60.45
2019-04-27T09:31:33.854Z,59.74
2019-04-27T09:32:33.823Z,58.43
2019-04-27T09:33:33.806Z,57.54
2019-04-27T09:34:33.806Z,57.78
2019-04-27T09:35:35.569Z,58.56
2019-04-27T09:36:33.803Z,59.87
2019-04-27T09:37:33.796Z,60.88
2019-04-27T09:38:35.656Z,60.85
2019-04-27T09:39:35.757Z,60.75
2019-04-27T09:40:33.743Z,59.94
2019-04-27T09:41:33.733Z,59.61
2019-04-27T09:42:33.705Z,58.12
2019-04-27T09:43:33.689Z,59.54
2019-04-27T09:44:33.683Z,59.64
2019-04-27T09:45:33.701Z,59.64
2019-04-27T09:46:33.709Z,59.41
2019-04-27T09:47:33.714Z,58.50
2019-04-27T09:48:33.640Z,58.70
2019-04-27T09:49:33.631Z,58.70
2019-04-27T09:50:35.932Z,58.70
2019-04-27T09:51:33.632Z,58.02
2019-04-27T09:52:33.610Z,58.20
2019-04-27T09:53:33.599Z,57.49
2019-04-27T09:54:33.598Z,56.18
2019-04-27T09:55:33.563Z,55.27
2019-04-27T09:56:33.556Z,55.34
2019-04-27T09:57:33.553Z,55.85
2019-04-27T09:58:33.526Z,55.52
2019-04-27T09:59:33.510Z,55.32
2019-04-27T10:00:33.503Z,55.94
2019-04-27T10:01:33.516Z,56.15
2019-04-27T10:02:33.598Z,55.54
2019-04-27T10:03:33.469Z,55.74
2019-04-27T10:04:33.470Z,55.21
2019-04-27T10:05:33.446Z,55.99
2019-04-27T10:06:33.442Z,53.07
2019-04-27T10:07:33.457Z,52.74
2019-04-27T10:08:33.411Z,52.74
2019-04-27T10:09:33.403Z,52.31
2019-04-27T10:10:33.390Z,52.72
2019-04-27T10:11:33.378Z,52.42
2019-04-27T10:12:34.443Z,51.51
2019-04-27T10:13:33.354Z,51.61
2019-04-27T10:14:33.355Z,51.48
2019-04-27T10:15:33.353Z,51.48
2019-04-27T10:16:33.344Z,52.51
2019-04-27T10:17:33.333Z,51.59
2019-04-27T10:18:33.303Z,53.38
2019-04-27T10:19:33.300Z,52.26
2019-04-27T10:20:38.292Z,51.56
2019-04-27T10:21:34.264Z,51.97
2019-04-27T10:22:41.202Z,51.34
2019-04-27T10:23:34.240Z,50.96
2019-04-27T10:24:33.232Z,50.85
2019-04-27T10:25:33.227Z,51.56
2019-04-27T10:26:33.218Z,50.45
2019-04-27T10:27:33.218Z,50.13
2019-04-27T10:28:33.196Z,50.02
2019-04-27T10:29:33.178Z,50.13
2019-04-27T10:30:33.160Z,50.02
2019-04-27T10:31:33.187Z,50.63
2019-04-27T10:32:33.159Z,50.40
2019-04-27T10:33:33.164Z,50.43
2019-04-27T10:34:33.122Z,51.93
2019-04-27T10:35:33.107Z,51.34
2019-04-27T10:36:33.094Z,51.64
2019-04-27T10:37:33.105Z,50.83
2019-04-27T10:38:33.118Z,50.31
2019-04-27T10:39:33.071Z,50.10
2019-04-27T10:40:33.059Z,51.11
2019-04-27T10:41:33.042Z,50.20
2019-04-27T10:42:33.052Z,50.00
2019-04-27T10:43:33.023Z,48.27
2019-04-27T10:44:32.999Z,48.19
2019-04-27T10:45:32.994Z,49.70
2019-04-27T10:46:32.978Z,49.42
2019-04-27T10:47:32.998Z,50.02
2019-04-27T10:48:32.956Z,49.52
2019-04-27T10:49:32.945Z,49.80
2019-04-27T10:50:33.909Z,48.67
2019-04-27T10:51:32.927Z,46.92
2019-04-27T10:52:32.916Z,46.45
2019-04-27T10:53:32.929Z,45.45
2019-04-27T10:54:32.891Z,46.77
2019-04-27T10:55:32.934Z,46.80
2019-04-27T10:56:32.870Z,47.05
2019-04-27T10:57:32.888Z,46.35
2019-04-27T10:58:32.847Z,46.04
2019-04-27T10:59:32.841Z,45.34
2019-04-27T11:00:32.826Z,45.62
2019-04-27T11:01:32.811Z,45.60
2019-04-27T11:02:32.822Z,44.20
2019-04-27T11:03:32.808Z,45.12
2019-04-27T11:04:32.780Z,45.00
2019-04-27T11:05:32.774Z,44.20
2019-04-27T11:06:32.767Z,44.80
2019-04-27T11:07:32.764Z,45.60
2019-04-27T11:08:32.740Z,43.50
2019-04-27T11:09:32.725Z,43.10
2019-04-27T11:10:32.719Z,44.42
2019-04-27T11:11:32.701Z,45.65
2019-04-27T11:12:32.714Z,45.69
2019-04-27T11:13:32.686Z,47.54
2019-04-27T11:14:32.677Z,47.56
2019-04-27T11:15:32.655Z,48.09
2019-04-27T11:16:32.650Z,48.92
2019-04-27T11:17:32.654Z,48.72
2019-04-27T11:18:32.637Z,49.30
2019-04-27T11:19:32.615Z,49.90
2019-04-27T11:20:32.639Z,48.75
2019-04-27T11:21:32.590Z,46.67
2019-04-27T11:22:32.604Z,41.57
2019-04-27T11:23:32.579Z,41.89
2019-04-27T11:24:32.563Z,42.76
2019-04-27T11:25:32.553Z,41.74
2019-04-27T11:26:32.536Z,43.51
2019-04-27T11:27:32.564Z,39.09
2019-04-27T11:28:32.511Z,39.11
2019-04-27T11:29:32.523Z,39.63
2019-04-27T11:30:32.490Z,41.15
2019-04-27T11:31:32.481Z,41.38
2019-04-27T11:32:32.546Z,41.61
2019-04-27T11:33:32.457Z,43.02
2019-04-27T11:34:32.447Z,44.32
2019-04-27T11:35:32.447Z,42.91
2019-04-27T11:36:32.512Z,43.84
2019-04-27T11:37:32.436Z,44.04
2019-04-27T11:38:32.473Z,43.66
2019-04-27T11:39:32.411Z,44.54
2019-04-27T11:40:32.384Z,42.41
2019-04-27T11:41:32.370Z,41.85
2019-04-27T11:42:32.389Z,40.43
2019-04-27T11:43:32.508Z,40.71
2019-04-27T11:44:32.515Z,39.09
2019-04-27T11:45:32.325Z,38.44
2019-04-27T11:46:32.330Z,35.46
2019-04-27T11:47:32.330Z,36.16
2019-04-27T11:48:32.291Z,35.33
2019-04-27T11:49:32.335Z,35.16
2019-04-27T11:50:35.649Z,34.36
2019-04-27T11:51:32.292Z,34.50
2019-04-27T11:52:32.271Z,35.05
2019-04-27T11:53:32.260Z,35.88
2019-04-27T11:54:32.992Z,34.92
2019-04-27T11:55:32.220Z,33.30
2019-04-27T11:56:32.235Z,33.39
2019-04-27T11:57:32.208Z,32.79
2019-04-27T11:58:34.888Z,33.78
2019-04-27T11:59:32.167Z,32.09
2019-04-27T12:00:32.164Z,33.55
2019-04-27T12:01:32.152Z,33.45
2019-04-27T12:02:32.181Z,32.20
2019-04-27T12:03:32.157Z,31.87
2019-04-27T12:04:32.136Z,33.52
2019-04-27T12:05:32.153Z,34.56
2019-04-27T12:06:32.102Z,35.89
2019-04-27T12:07:32.105Z,35.54
2019-04-27T12:08:32.091Z,36.46
2019-04-27T12:09:32.075Z,37.70
2019-04-27T12:10:32.075Z,37.83
2019-04-27T12:11:32.080Z,38.37
2019-04-27T12:12:32.029Z,40.07
2019-04-27T12:13:32.040Z,38.57
2019-04-27T12:14:32.009Z,39.33
2019-04-27T12:15:32.015Z,39.81
2019-04-27T12:16:31.990Z,38.89
2019-04-27T12:17:31.973Z,37.98
2019-04-27T12:18:32.010Z,36.06
2019-04-27T12:19:31.948Z,37.66
2019-04-27T12:20:31.940Z,36.74
2019-04-27T12:21:31.974Z,35.24
2019-04-27T12:22:31.952Z,37.36
2019-04-27T12:23:35.553Z,38.16
2019-04-27T12:24:32.892Z,37.56
2019-04-27T12:25:31.890Z,38.26
2019-04-27T12:26:31.882Z,38.14
2019-04-27T12:27:31.910Z,37.34
2019-04-27T12:28:31.898Z,36.76
2019-04-27T12:29:31.839Z,38.85
2019-04-27T12:30:31.854Z,37.86
2019-04-27T12:31:31.822Z,36.64
2019-04-27T12:32:31.820Z,37.04
2019-04-27T12:33:31.845Z,36.74
2019-04-27T12:34:31.785Z,37.46
2019-04-27T12:35:31.777Z,38.16
2019-04-27T12:36:31.773Z,37.26
2019-04-27T12:37:31.756Z,37.98
2019-04-27T12:38:31.762Z,37.79
2019-04-27T12:39:31.727Z,37.51
2019-04-27T12:40:31.726Z,40.43
2019-04-27T12:41:31.715Z,39.43
2019-04-27T12:42:31.701Z,38.45
2019-04-27T12:43:31.721Z,39.35
2019-04-27T12:44:31.684Z,39.47
2019-04-27T12:45:31.671Z,39.49
2019-04-27T12:46:31.654Z,41.41
2019-04-27T12:47:31.648Z,41.31
2019-04-27T12:48:31.657Z,41.23
2019-04-27T12:49:31.667Z,42.86
2019-04-27T12:50:31.632Z,43.08
2019-04-27T12:51:31.606Z,43.60
2019-04-27T12:52:31.589Z,44.73
2019-04-27T12:53:31.608Z,44.32
2019-04-27T12:54:31.748Z,44.35
2019-04-27T12:55:31.562Z,45.86
2019-04-27T12:56:31.541Z,45.86
2019-04-27T12:57:31.573Z,47.26
2019-04-27T12:58:31.522Z,46.15
2019-04-27T12:59:31.543Z,46.98
2019-04-27T13:00:31.521Z,48.32
2019-04-27T13:01:31.499Z,48.44
2019-04-27T13:02:31.470Z,48.44
2019-04-27T13:03:31.466Z,49.47
2019-04-27T13:04:31.471Z,49.47
2019-04-27T13:05:31.436Z,50.05
2019-04-27T13:06:31.503Z,49.65
2019-04-27T13:07:31.423Z,49.44
2019-04-27T13:08:31.439Z,50.05
2019-04-27T13:09:31.416Z,50.45
2019-04-27T13:10:31.402Z,49.75
2019-04-27T13:11:31.389Z,49.95
2019-04-27T13:12:31.367Z,51.03
2019-04-27T13:13:31.347Z,50.33
2019-04-27T13:14:31.357Z,48.52
2019-04-27T13:15:31.351Z,49.42
2019-04-27T13:16:31.325Z,49.32
2019-04-27T13:17:31.336Z,50.93
2019-04-27T13:18:31.309Z,50.02
2019-04-27T13:19:31.283Z,50.02
2019-04-27T13:20:31.372Z,49.75
2019-04-27T13:21:31.264Z,49.87
2019-04-27T13:22:31.334Z,50.17
2019-04-27T13:23:31.240Z,49.87
2019-04-27T13:24:31.240Z,49.47
2019-04-27T13:25:31.239Z,49.99
2019-04-27T13:26:31.199Z,50.70
2019-04-27T13:27:31.213Z,51.40
2019-04-27T13:28:31.186Z,50.60
2019-04-27T13:29:31.175Z,51.10
2019-04-27T13:30:31.187Z,50.42
2019-04-27T13:31:31.145Z,50.82
2019-04-27T13:32:31.134Z,52.04
2019-04-27T13:33:31.138Z,52.16
2019-04-27T13:34:31.115Z,52.47
2019-04-27T13:35:39.456Z,52.56
2019-04-27T13:36:33.090Z,52.59
2019-04-27T13:37:31.078Z,51.98
2019-04-27T13:38:31.067Z,51.89
2019-04-27T13:39:31.056Z,53.12
2019-04-27T13:40:31.063Z,52.61
2019-04-27T13:41:32.942Z,52.92
2019-04-27T13:42:31.063Z,53.02
2019-04-27T13:43:31.009Z,53.75
2019-04-27T13:44:31.003Z,53.22
2019-04-27T13:45:30.990Z,53.12
2019-04-27T13:46:30.992Z,52.82
2019-04-27T13:47:30.971Z,53.12
2019-04-27T13:48:30.950Z,53.12
2019-04-27T13:49:30.938Z,50.19
2019-04-27T13:50:31.015Z,50.19
2019-04-27T13:51:30.937Z,47.97
2019-04-27T13:52:30.935Z,49.38
2019-04-27T13:53:32.494Z,48.30
2019-04-27T13:54:30.887Z,48.47
2019-04-27T13:55:30.886Z,48.98
2019-04-27T13:56:30.855Z,47.56
2019-04-27T13:57:30.871Z,47.26
2019-04-27T13:58:31.065Z,48.07
2019-04-27T13:59:31.840Z,47.26
2019-04-27T14:00:30.814Z,47.14
2019-04-27T14:01:30.813Z,47.04
2019-04-27T14:02:32.600Z,48.43
2019-04-27T14:03:30.797Z,45.61
2019-04-27T14:04:30.772Z,44.19
2019-04-27T14:05:30.766Z,44.70
2019-04-27T14:06:30.792Z,43.89
2019-04-27T14:07:30.771Z,43.18
2019-04-27T14:08:30.736Z,43.51
2019-04-27T14:09:30.802Z,43.71
2019-04-27T14:10:30.702Z,44.01
2019-04-27T14:11:30.709Z,44.01
2019-04-27T14:12:31.074Z,44.11
2019-04-27T14:13:30.681Z,43.28
2019-04-27T14:14:30.674Z,43.89
2019-04-27T14:15:30.646Z,43.79
2019-04-27T14:16:30.645Z,44.27
2019-04-27T14:17:30.647Z,42.35
2019-04-27T14:18:30.616Z,42.07
2019-04-27T14:19:30.630Z,43.28
2019-04-27T14:20:30.605Z,43.57
2019-04-27T14:21:32.883Z,44.09
2019-04-27T14:22:31.600Z,42.38
2019-04-27T14:23:30.577Z,44.29
2019-04-27T14:24:32.009Z,43.77
2019-04-27T14:25:30.564Z,42.27
2019-04-27T14:26:31.052Z,43.38
2019-04-27T14:27:30.514Z,43.69
2019-04-27T14:28:30.518Z,43.77
2019-04-27T14:29:30.483Z,42.18
2019-04-27T14:30:30.477Z,43.38
2019-04-27T14:31:30.495Z,42.47
2019-04-27T14:32:30.454Z,42.38
2019-04-27T14:33:30.491Z,41.85
2019-04-27T14:34:30.432Z,43.46
2019-04-27T14:35:31.264Z,44.37
2019-04-27T14:36:30.418Z,44.37
2019-04-27T14:37:30.427Z,43.66
2019-04-27T14:38:30.408Z,43.06
2019-04-27T14:39:30.371Z,44.37
2019-04-27T14:40:30.376Z,42.55
2019-04-27T14:41:30.353Z,42.84
2019-04-27T14:42:30.356Z,43.24
2019-04-27T14:43:30.359Z,43.44
2019-04-27T14:44:30.316Z,43.62
2019-04-27T14:45:30.308Z,42.01
2019-04-27T14:46:30.576Z,43.22
2019-04-27T14:47:30.328Z,43.32
2019-04-27T14:48:30.701Z,44.13
2019-04-27T14:49:30.263Z,43.42
2019-04-27T14:50:30.256Z,43.40
2019-04-27T14:51:30.239Z,43.91
2019-04-27T14:52:30.237Z,43.40
2019-04-27T14:53:30.266Z,44.61
2019-04-27T14:54:44.994Z,43.88
2019-04-27T14:55:32.011Z,44.19
2019-04-27T14:56:30.185Z,43.88
2019-04-27T14:57:30.199Z,42.88
2019-04-27T14:58:30.208Z,42.58
2019-04-27T14:59:30.248Z,43.28
2019-04-27T15:00:30.658Z,43.38
2019-04-27T15:01:30.127Z,43.88
2019-04-27T15:02:30.123Z,43.76
2019-04-27T15:03:30.272Z,43.04
2019-04-27T15:04:31.318Z,42.32
2019-04-27T15:05:30.163Z,42.30
2019-04-27T15:06:30.278Z,40.87
2019-04-27T15:07:30.093Z,41.37
2019-04-27T15:08:30.080Z,41.07
2019-04-27T15:09:30.122Z,39.97
2019-04-27T15:10:33.009Z,41.37
2019-04-27T15:11:31.563Z,39.06
2019-04-27T15:12:32.130Z,39.16
2019-04-27T15:13:30.053Z,40.26
2019-04-27T15:14:31.072Z,41.27
2019-04-27T15:15:32.569Z,38.54
2019-04-27T15:16:29.968Z,40.25
2019-04-27T15:17:29.957Z,38.64
2019-04-27T15:18:29.954Z,39.23
2019-04-27T15:19:29.953Z,38.20
2019-04-27T15:20:31.078Z,38.60
2019-04-27T15:21:32.678Z,39.59
2019-04-27T15:22:30.887Z,38.17
2019-04-27T15:23:30.837Z,38.25
2019-04-27T15:24:31.195Z,37.25
2019-04-27T15:25:35.033Z,37.13
2019-04-27T15:26:30.891Z,37.03
2019-04-27T15:27:30.856Z,36.76
2019-04-27T15:28:32.063Z,37.98
2019-04-27T15:29:30.195Z,38.68
2019-04-27T15:30:29.800Z,39.51
2019-04-27T15:31:29.828Z,39.51
2019-04-27T15:32:33.590Z,39.42
2019-04-27T15:33:29.772Z,38.82
2019-04-27T15:34:29.821Z,38.62
2019-04-27T15:35:29.743Z,39.73
2019-04-27T15:36:29.729Z,38.32
2019-04-27T15:37:33.938Z,37.63
2019-04-27T15:38:30.734Z,39.47
2019-04-27T15:39:30.619Z,38.06
2019-04-27T15:40:29.685Z,38.48
2019-04-27T15:41:31.558Z,39.40
2019-04-27T15:42:29.695Z,39.30
2019-04-27T15:43:30.916Z,38.90
2019-04-27T15:44:29.665Z,38.66
2019-04-27T15:45:29.621Z,39.54
2019-04-27T15:46:33.728Z,37.94
2019-04-27T15:47:33.479Z,38.54
2019-04-27T15:48:30.717Z,38.64
2019-04-27T15:49:29.591Z,38.66
2019-04-27T15:50:32.247Z,38.36
2019-04-27T15:51:29.563Z,39.75
2019-04-27T15:52:33.057Z,39.67
2019-04-27T15:53:29.545Z,37.51
2019-04-27T15:54:32.291Z,37.19
2019-04-27T15:55:34.570Z,36.90
2019-04-27T15:56:34.707Z,36.81
2019-04-27T15:57:29.495Z,37.63
2019-04-27T15:58:29.489Z,38.85
2019-04-27T15:59:30.919Z,39.07
2019-04-27T16:00:30.492Z,38.67
2019-04-27T16:01:35.629Z,37.45
2019-04-27T16:02:30.429Z,38.35
2019-04-27T16:03:31.430Z,36.65
2019-04-27T16:04:29.406Z,37.35
2019-04-27T16:05:32.641Z,37.16
2019-04-27T16:06:30.408Z,38.70
2019-04-27T16:07:31.719Z,40.23
2019-04-27T16:08:29.364Z,38.84
2019-04-27T16:09:29.361Z,39.56
2019-04-27T16:10:32.863Z,40.47
2019-04-27T16:11:30.352Z,40.26
2019-04-27T16:12:29.338Z,41.67
2019-04-27T16:13:32.915Z,42.10
2019-04-27T16:14:29.295Z,41.89
2019-04-27T16:15:29.971Z,43.30
2019-04-27T16:16:33.351Z,43.10
2019-04-27T16:17:31.904Z,43.30
2019-04-27T16:18:32.621Z,43.50
2019-04-27T16:19:29.246Z,43.50
2019-04-27T16:20:33.637Z,43.10
2019-04-27T16:21:31.520Z,43.92
2019-04-27T16:22:29.219Z,43.52
2019-04-27T16:23:33.565Z,43.72
2019-04-27T16:24:32.217Z,44.02
2019-04-27T16:25:31.580Z,44.55
2019-04-27T16:26:30.183Z,45.55
2019-04-27T16:27:31.439Z,44.55
2019-04-27T16:28:30.162Z,44.87
2019-04-27T16:29:31.570Z,45.67
2019-04-27T16:30:29.113Z,45.50
2019-04-27T16:31:32.054Z,46.20
2019-04-27T16:32:29.102Z,46.00
2019-04-27T16:33:29.100Z,48.11
2019-04-27T16:34:32.978Z,46.70
2019-04-27T16:35:30.076Z,46.10
2019-04-27T16:36:29.119Z,45.90
2019-04-27T16:37:29.039Z,46.80
2019-04-27T16:38:33.570Z,47.63
2019-04-27T16:39:30.023Z,47.23
2019-04-27T16:40:30.148Z,46.93
2019-04-27T16:41:29.025Z,48.24
2019-04-27T16:42:28.977Z,48.54
2019-04-27T16:43:32.620Z,48.34
2019-04-27T16:44:28.967Z,48.74
2019-04-27T16:45:28.963Z,48.86
2019-04-27T16:46:28.946Z,48.46
2019-04-27T16:47:28.966Z,49.47
2019-04-27T16:48:34.331Z,50.07
2019-04-27T16:49:29.919Z,48.66
2019-04-27T16:50:28.971Z,49.09
2019-04-27T16:51:29.789Z,49.29
2019-04-27T16:52:30.144Z,49.97
2019-04-27T16:53:30.073Z,49.99
2019-04-27T16:54:29.852Z,50.10
2019-04-27T16:55:34.075Z,49.69
2019-04-27T16:56:29.917Z,49.69
2019-04-27T16:57:32.423Z,49.69
2019-04-27T16:58:31.869Z,49.79
2019-04-27T16:59:43.590Z,49.99
2019-04-27T17:00:30.511Z,49.79
2019-04-27T17:01:30.470Z,50.40
2019-04-27T17:02:28.797Z,51.31
2019-04-27T17:03:31.628Z,50.52
2019-04-27T17:04:29.394Z,50.32
2019-04-27T17:05:34.276Z,51.13
2019-04-27T17:06:29.862Z,51.03
2019-04-27T17:07:30.258Z,49.82
2019-04-27T17:08:29.681Z,50.12
2019-04-27T17:09:29.216Z,50.12
2019-04-27T17:10:29.152Z,49.94
2019-04-27T17:11:29.787Z,50.45
2019-04-27T17:12:32.475Z,50.65
2019-04-27T17:13:30.591Z,50.75
2019-04-27T17:14:34.816Z,51.66
2019-04-27T17:15:30.038Z,51.45
2019-04-27T17:16:32.222Z,51.66
2019-04-27T17:17:29.613Z,51.98
2019-04-27T17:18:30.930Z,51.98
2019-04-27T17:19:30.583Z,52.09
2019-04-27T17:20:29.909Z,52.89
2019-04-27T17:21:28.889Z,53.30
2019-04-27T17:22:28.699Z,52.97
2019-04-27T17:23:31.241Z,53.40
2019-04-27T17:24:31.901Z,52.97
2019-04-27T17:25:33.069Z,53.09
2019-04-27T17:26:29.476Z,54.31
2019-04-27T17:27:31.214Z,53.40
2019-04-27T17:28:28.494Z,53.40
2019-04-27T17:29:28.473Z,54.51
2019-04-27T17:30:31.004Z,54.41
2019-04-27T17:31:29.420Z,54.81
2019-04-27T17:32:30.390Z,53.70
2019-04-27T17:33:29.429Z,54.51
2019-04-27T17:34:28.640Z,54.21
2019-04-27T17:35:28.573Z,53.70
2019-04-27T17:36:29.259Z,54.41
2019-04-27T17:37:32.228Z,54.53
2019-04-27T17:38:30.493Z,53.93
2019-04-27T17:39:29.813Z,55.34
2019-04-27T17:40:29.929Z,54.83
2019-04-27T17:41:29.318Z,55.24
2019-04-27T17:42:30.621Z,55.85
2019-04-27T17:43:28.880Z,55.94
2019-04-27T17:44:28.815Z,55.34
2019-04-27T17:45:30.464Z,55.34
2019-04-27T17:46:29.268Z,55.36
2019-04-27T17:47:29.917Z,55.65
2019-04-27T17:48:28.868Z,55.85
2019-04-27T17:49:28.222Z,56.65
2019-04-27T17:50:29.864Z,56.56
2019-04-27T17:51:30.685Z,57.36
2019-04-27T17:52:29.104Z,57.56
2019-04-27T17:53:29.881Z,56.65
2019-04-27T17:54:28.987Z,55.65
2019-04-27T17:55:28.188Z,56.15
2019-04-27T17:56:35.953Z,56.68
2019-04-27T17:57:30.163Z,56.68
2019-04-27T17:58:28.656Z,57.18
2019-04-27T17:59:28.118Z,56.88
2019-04-27T18:00:28.226Z,56.98
2019-04-27T18:01:30.100Z,57.49
2019-04-27T18:02:29.313Z,57.29
2019-04-27T18:03:28.494Z,58.09
2019-04-27T18:04:28.748Z,58.50
2019-04-27T18:05:28.559Z,57.89
2019-04-27T18:06:29.713Z,57.59
2019-04-27T18:07:30.119Z,57.49
2019-04-27T18:08:29.129Z,57.89
2019-04-27T18:09:29.050Z,58.50
2019-04-27T18:10:28.280Z,59.11
2019-04-27T18:11:28.739Z,58.70
2019-04-27T18:12:28.497Z,59.31
2019-04-27T18:13:28.854Z,59.00
2019-04-27T18:14:32.542Z,59.00
2019-04-27T18:15:28.756Z,59.54
2019-04-27T18:16:31.103Z,59.44
2019-04-27T18:17:28.901Z,59.44
2019-04-27T18:18:28.107Z,59.54
2019-04-27T18:19:28.307Z,59.64
2019-04-27T18:20:28.944Z,59.64
2019-04-27T18:21:28.344Z,59.44
2019-04-27T18:22:28.200Z,60.96
2019-04-27T18:23:27.831Z,60.45
2019-04-27T18:24:29.121Z,60.45
2019-04-27T18:25:28.607Z,60.35
2019-04-27T18:26:29.516Z,60.45
2019-04-27T18:27:27.802Z,59.94
2019-04-27T18:28:28.368Z,60.45
2019-04-27T18:29:30.879Z,59.84
2019-04-27T18:30:28.237Z,60.65
2019-04-27T18:31:28.912Z,60.96
2019-04-27T18:32:28.739Z,60.48
2019-04-27T18:33:28.406Z,61.08
2019-04-27T18:34:28.623Z,60.58
2019-04-27T18:35:29.490Z,60.98
2019-04-27T18:36:29.438Z,61.08
2019-04-27T18:37:28.290Z,61.49
2019-04-27T18:38:30.899Z,61.39
2019-04-27T18:39:28.650Z,61.90
2019-04-27T18:40:32.068Z,60.78
2019-04-27T18:41:28.824Z,61.39
2019-04-27T18:42:31.145Z,61.39
2019-04-27T18:43:28.595Z,61.19
2019-04-27T18:44:30.510Z,61.41
2019-04-27T18:45:28.413Z,62.02
2019-04-27T18:46:28.284Z,61.92
2019-04-27T18:47:31.055Z,62.02
2019-04-27T18:48:27.571Z,62.02
2019-04-27T18:49:30.253Z,62.12
2019-04-27T18:50:28.195Z,62.63
2019-04-27T18:51:28.801Z,62.15
2019-04-27T18:52:27.528Z,62.05
2019-04-27T18:53:28.852Z,62.15
2019-04-27T18:54:28.786Z,61.85
2019-04-27T18:55:29.357Z,62.66
2019-04-27T18:56:29.069Z,62.05
2019-04-27T18:57:29.999Z,62.96
2019-04-27T18:58:27.435Z,62.46
2019-04-27T18:59:28.853Z,62.66
2019-04-27T19:00:27.982Z,62.96
2019-04-27T19:01:28.928Z,62.96
2019-04-27T19:02:28.815Z,63.30
2019-04-27T19:03:31.044Z,63.90
2019-04-27T19:04:28.151Z,64.07
2019-04-27T19:05:39.279Z,63.30
2019-04-27T19:06:29.014Z,64.01
2019-04-27T19:07:28.989Z,63.78
2019-04-27T19:08:28.154Z,63.60
2019-04-27T19:09:27.354Z,64.11
2019-04-27T19:10:28.168Z,64.31
2019-04-27T19:11:29.082Z,64.51
2019-04-27T19:12:28.714Z,65.22
2019-04-27T19:13:27.292Z,65.32
2019-04-27T19:14:28.256Z,65.22
2019-04-27T19:15:28.576Z,65.36
2019-04-27T19:16:29.038Z,65.66
2019-04-27T19:17:28.221Z,65.66
2019-04-27T19:18:27.240Z,65.36
2019-04-27T19:19:28.074Z,65.36
2019-04-27T19:20:28.808Z,65.96
2019-04-27T19:21:28.838Z,65.56
2019-04-27T19:22:27.993Z,65.76
2019-04-27T19:23:27.159Z,65.76
2019-04-27T19:24:28.168Z,65.76
2019-04-27T19:25:28.794Z,66.06
2019-04-27T19:26:28.894Z,65.45
2019-04-27T19:27:27.927Z,65.56
2019-04-27T19:28:28.318Z,64.24
2019-04-27T19:29:29.120Z,63.43
2019-04-27T19:30:28.048Z,62.82
2019-04-27T19:31:29.014Z,62.31
2019-04-27T19:32:28.126Z,61.30
2019-04-27T19:33:29.135Z,62.11
2019-04-27T19:34:28.674Z,62.01
2019-04-27T19:35:28.671Z,60.28
2019-04-27T19:36:27.972Z,61.10
2019-04-27T19:37:28.652Z,59.68
2019-04-27T19:38:28.857Z,59.99
2019-04-27T19:39:28.548Z,59.68
2019-04-27T19:40:28.940Z,60.69
2019-04-27T19:41:28.714Z,59.48
2019-04-27T19:42:28.558Z,59.50
2019-04-27T19:43:28.446Z,59.30
2019-04-27T19:44:28.982Z,59.81
2019-04-27T19:45:26.914Z,59.50
2019-04-27T19:46:28.802Z,59.81
2019-04-27T19:47:26.908Z,59.84
2019-04-27T19:48:28.534Z,60.11
2019-04-27T19:49:26.863Z,60.75
2019-04-27T19:50:28.575Z,60.44
2019-04-27T19:51:28.243Z,60.85
2019-04-27T19:52:28.142Z,61.02